createdAt,value
2024-04-12T00:00:55.277Z,2.90
2024-04-12T00:03:04.224Z,2.70
2024-04-12T00:05:07.750Z,3.10
2024-04-12T00:07:19.506Z,2.97
2024-04-12T00:09:25.536Z,2.97
2024-04-12T00:11:27.473Z,2.67
2024-04-12T00:13:32.916Z,3.30
2024-04-12T00:15:35.401Z,3.67
2024-04-12T00:17:40.194Z,3.03
2024-04-12T00:19:47.640Z,3.30
2024-04-12T00:21:53.965Z,3.43
2024-04-12T00:23:57.245Z,2.97
2024-04-12T00:26:03.847Z,3.27
2024-04-12T00:28:07.020Z,3.40
2024-04-12T00:30:12.806Z,3.20
2024-04-12T00:32:17.652Z,3.23
2024-04-12T00:34:27.845Z,3.00
2024-04-12T00:36:35.471Z,2.93
2024-04-12T00:38:40.124Z,4.13
2024-04-12T00:40:49.962Z,3.60
2024-04-12T00:42:56.989Z,3.27
2024-04-12T00:45:05.458Z,3.93
2024-04-12T00:47:11.780Z,3.97
2024-04-12T00:49:20.127Z,4.30
2024-04-12T00:51:25.760Z,3.77
2024-04-12T00:53:33.855Z,4.27
2024-04-12T00:55:40.001Z,4.00
2024-04-12T00:57:44.948Z,4.13
2024-04-12T00:59:47.037Z,4.20
2024-04-12T01:01:53.802Z,4.17
2024-04-12T01:03:56.946Z,4.10
2024-04-12T01:06:02.599Z,4.03
2024-04-12T01:08:07.442Z,5.23
2024-04-12T01:10:14.895Z,4.73
2024-04-12T01:12:18.719Z,4.67
2024-04-12T01:14:26.495Z,4.23
2024-04-12T01:16:29.626Z,4.50
2024-04-12T01:18:34.583Z,4.30
2024-04-12T01:20:37.235Z,4.27
2024-04-12T01:22:46.135Z,4.57
2024-04-12T01:24:51.734Z,4.50
2024-04-12T01:26:57.401Z,4.70
2024-04-12T01:29:00.117Z,4.70
2024-04-12T01:31:04.959Z,5.00
2024-04-12T01:33:09.765Z,4.97
2024-04-12T01:35:17.920Z,5.13
2024-04-12T01:37:22.270Z,4.93
2024-04-12T01:39:30.016Z,4.90
2024-04-12T01:41:34.945Z,4.73
2024-04-12T01:43:39.898Z,4.57
2024-04-12T01:45:41.801Z,4.83
2024-04-12T01:47:44.711Z,5.23
2024-04-12T01:49:49.758Z,5.27
2024-04-12T01:51:51.602Z,5.00
2024-04-12T01:53:58.857Z,5.00
2024-04-12T01:56:01.187Z,5.10
2024-04-12T01:58:08.835Z,5.23
2024-04-12T02:00:13.448Z,5.23
2024-04-12T02:02:18.216Z,6.00
2024-04-12T02:04:23.068Z,5.77
2024-04-12T02:06:28.619Z,5.80
2024-04-12T02:08:31.387Z,5.57
2024-04-12T02:10:35.900Z,4.70
2024-04-12T02:12:38.079Z,5.53
2024-04-12T02:14:45.281Z,5.20
2024-04-12T02:16:52.091Z,5.50
2024-04-12T02:18:59.497Z,4.83
2024-04-12T02:21:06.476Z,5.40
2024-04-12T02:23:17.055Z,5.23
2024-04-12T02:25:18.997Z,4.57
2024-04-12T02:27:24.123Z,4.90
2024-04-12T02:29:26.272Z,4.33
2024-04-12T02:31:36.932Z,4.40
2024-04-12T02:33:39.261Z,4.27
2024-04-12T02:35:46.625Z,3.90
2024-04-12T02:37:50.380Z,3.90
2024-04-12T02:39:55.259Z,4.07
2024-04-12T02:41:57.345Z,4.20
2024-04-12T02:44:05.168Z,4.33
2024-04-12T02:46:07.908Z,3.70
2024-04-12T02:48:15.059Z,4.70
2024-04-12T02:50:18.097Z,4.10
2024-04-12T02:52:23.586Z,4.20
2024-04-12T02:54:29.189Z,4.40
2024-04-12T02:56:35.048Z,4.37
2024-04-12T02:58:40.680Z,4.60
2024-04-12T03:00:46.261Z,4.27
2024-04-12T03:02:48.656Z,4.13
2024-04-12T03:04:55.804Z,4.53
2024-04-12T03:06:57.806Z,4.20
2024-04-12T03:09:05.128Z,4.60
2024-04-12T03:11:23.051Z,4.57
2024-04-12T03:13:30.713Z,4.13
2024-04-12T03:15:35.929Z,3.93
2024-04-12T03:17:41.005Z,4.37
2024-04-12T03:19:42.892Z,4.43
2024-04-12T03:21:53.067Z,6.73
2024-04-12T03:23:56.679Z,4.40
2024-04-12T03:26:03.689Z,3.83
2024-04-12T03:28:10.051Z,4.93
2024-04-12T03:30:17.500Z,4.57
2024-04-12T03:32:26.550Z,5.00
2024-04-12T03:34:29.647Z,4.93
2024-04-12T03:36:54.748Z,5.03
2024-04-12T03:39:26.098Z,4.80
2024-04-12T03:41:34.027Z,4.47
2024-04-12T03:43:36.272Z,4.73
2024-04-12T03:45:41.586Z,4.40
2024-04-12T03:47:46.717Z,4.27
2024-04-12T03:49:56.355Z,4.37
2024-04-12T03:51:58.379Z,4.50
2024-04-12T03:54:12.443Z,4.40
2024-04-12T03:56:14.657Z,4.07
2024-04-12T03:58:20.022Z,4.10
2024-04-12T04:00:25.116Z,4.40
2024-04-12T04:02:34.140Z,4.50
2024-04-12T04:04:46.532Z,4.20
2024-04-12T04:06:50.402Z,4.63
2024-04-12T04:08:55.516Z,5.23
2024-04-12T04:11:04.079Z,4.97
2024-04-12T04:13:09.048Z,4.97
2024-04-12T04:15:11.239Z,4.73
2024-04-12T04:17:15.799Z,4.70
2024-04-12T04:19:19.841Z,5.17
2024-04-12T04:21:25.752Z,4.53
2024-04-12T04:23:27.818Z,5.20
2024-04-12T04:25:33.349Z,4.87
2024-04-12T04:27:47.720Z,4.90
2024-04-12T04:29:56.942Z,5.40
2024-04-12T04:31:59.175Z,5.90
2024-04-12T04:34:06.435Z,5.40
2024-04-12T04:36:10.666Z,4.87
2024-04-12T04:38:16.132Z,4.97
2024-04-12T04:40:20.160Z,4.93
2024-04-12T04:42:24.753Z,5.53
2024-04-12T04:44:33.246Z,4.87
2024-04-12T04:46:35.110Z,5.60
2024-04-12T04:48:39.907Z,4.50
2024-04-12T04:50:43.357Z,4.17
2024-04-12T04:52:48.435Z,4.27
2024-04-12T04:54:50.812Z,4.43
2024-04-12T04:56:55.800Z,5.00
2024-04-12T04:58:58.475Z,4.40
2024-04-12T05:01:06.126Z,4.90
2024-04-12T05:03:09.792Z,4.60
2024-04-12T05:05:15.923Z,4.60
2024-04-12T05:07:18.316Z,4.80
2024-04-12T05:09:24.821Z,4.53
2024-04-12T05:11:38.578Z,4.30
2024-04-12T05:13:43.963Z,4.33
2024-04-12T05:15:53.832Z,4.90
2024-04-12T05:18:05.283Z,4.87
2024-04-12T05:20:16.109Z,4.33
2024-04-12T05:22:21.572Z,4.03
2024-04-12T05:24:25.632Z,4.10
2024-04-12T05:26:33.321Z,5.13
2024-04-12T05:28:39.793Z,4.60
2024-04-12T05:31:13.059Z,4.50
2024-04-12T05:33:18.568Z,4.67
2024-04-12T05:35:32.674Z,4.63
2024-04-12T05:37:37.357Z,5.50
2024-04-12T05:39:46.908Z,5.17
2024-04-12T05:41:54.494Z,6.07
2024-04-12T05:44:01.082Z,5.93
2024-04-12T05:46:07.033Z,5.30
2024-04-12T05:48:17.825Z,5.77
2024-04-12T05:51:04.635Z,5.83
2024-04-12T05:53:09.591Z,5.57
2024-04-12T05:55:16.148Z,5.30
2024-04-12T05:57:24.264Z,6.47
2024-04-12T05:59:31.228Z,6.47
2024-04-12T06:01:35.283Z,6.50
2024-04-12T06:03:54.093Z,6.93
2024-04-12T06:06:00.877Z,7.83
2024-04-12T06:08:07.671Z,7.10
2024-04-12T06:10:10.186Z,7.77
2024-04-12T06:12:18.273Z,6.77
2024-04-12T06:14:25.714Z,7.57
2024-04-12T06:16:40.424Z,7.97
2024-04-12T06:18:55.951Z,8.40
2024-04-12T06:21:06.786Z,8.33
2024-04-12T06:23:12.238Z,8.37
2024-04-12T06:25:17.436Z,8.07
2024-04-12T06:27:33.021Z,8.77
2024-04-12T06:29:39.904Z,8.63
2024-04-12T06:31:44.651Z,8.83
2024-04-12T06:33:52.333Z,7.83
2024-04-12T06:36:08.350Z,6.77
2024-04-12T06:38:18.594Z,7.67
2024-04-12T06:40:29.861Z,6.97
2024-04-12T06:42:37.181Z,6.90
2024-04-12T06:44:46.670Z,7.13
2024-04-12T06:46:59.559Z,6.97
2024-04-12T06:49:15.842Z,6.70
2024-04-12T06:51:18.539Z,6.30
2024-04-12T06:53:28.020Z,9.23
2024-04-12T06:55:31.655Z,6.17
2024-04-12T06:57:36.620Z,6.67
2024-04-12T06:59:44.927Z,5.93
2024-04-12T07:01:47.610Z,6.43
2024-04-12T07:03:55.020Z,5.77
2024-04-12T07:05:58.241Z,5.70
2024-04-12T07:08:07.219Z,6.23
2024-04-12T07:10:12.701Z,5.90
2024-04-12T07:12:24.294Z,6.70
2024-04-12T07:14:27.890Z,7.60
2024-04-12T07:16:38.170Z,5.73
2024-04-12T07:18:43.824Z,6.40
2024-04-12T07:20:50.041Z,6.20
2024-04-12T07:22:52.889Z,6.23
2024-04-12T07:25:00.714Z,7.20
2024-04-12T07:27:09.839Z,6.03
2024-04-12T07:29:14.673Z,6.03
2024-04-12T07:31:17.270Z,6.83
2024-04-12T07:33:25.966Z,6.60
2024-04-12T07:35:28.396Z,6.27
2024-04-12T07:37:37.611Z,6.30
2024-04-12T07:39:42.284Z,7.83
2024-04-12T07:41:49.847Z,6.57
2024-04-12T07:43:58.345Z,7.20
2024-04-12T07:46:06.558Z,6.50
2024-04-12T07:48:30.451Z,6.20
2024-04-12T07:50:40.566Z,5.73
2024-04-12T07:53:23.259Z,6.87
2024-04-12T07:55:30.080Z,6.80
2024-04-12T07:57:32.287Z,11.50
2024-04-12T07:59:41.277Z,7.57
2024-04-12T08:01:46.839Z,7.53
2024-04-12T08:03:58.529Z,8.87
2024-04-12T08:06:01.381Z,7.03
2024-04-12T08:08:15.990Z,7.77
2024-04-12T08:10:30.539Z,7.43
2024-04-12T08:12:35.441Z,7.83
2024-04-12T08:14:53.436Z,8.27
2024-04-12T08:16:56.954Z,7.40
2024-04-12T08:19:01.629Z,8.77
2024-04-12T08:21:10.377Z,8.57
2024-04-12T08:23:19.258Z,7.27
2024-04-12T08:30:00.002Z,7.40
2024-04-12T08:32:12.894Z,7.23
2024-04-12T08:34:18.271Z,7.33
2024-04-12T08:36:20.334Z,8.40
2024-04-12T08:38:25.554Z,8.17
2024-04-12T08:40:27.959Z,8.63
2024-04-12T08:42:46.326Z,7.90
2024-04-12T08:44:48.909Z,9.17
2024-04-12T08:46:58.828Z,8.03
2024-04-12T08:49:01.729Z,6.87
2024-04-12T08:51:15.061Z,7.23
2024-04-12T08:53:21.994Z,7.40
2024-04-12T08:55:31.030Z,7.50
2024-04-12T08:57:35.211Z,8.17
2024-04-12T08:59:47.764Z,7.30
2024-04-12T09:01:53.893Z,7.93
2024-04-12T09:04:05.500Z,7.20
2024-04-12T09:06:16.246Z,7.30
2024-04-12T09:08:23.797Z,7.97
2024-04-12T09:10:28.811Z,7.57
2024-04-12T09:12:31.180Z,8.10
2024-04-12T09:14:42.166Z,9.27
2024-04-12T09:16:49.188Z,8.50
2024-04-12T09:19:16.329Z,7.57
2024-04-12T09:21:27.086Z,7.17
2024-04-12T09:23:53.189Z,9.57
2024-04-12T09:26:05.568Z,7.77
2024-04-12T09:28:14.804Z,7.20
2024-04-12T09:30:50.591Z,7.60
2024-04-12T09:33:01.995Z,8.13
2024-04-12T09:35:40.481Z,7.63
2024-04-12T09:37:55.456Z,7.57
2024-04-12T09:40:30.442Z,7.10
2024-04-12T09:42:51.848Z,7.93
2024-04-12T09:45:01.601Z,8.10
2024-04-12T09:47:22.842Z,7.73
2024-04-12T09:49:44.852Z,8.47
2024-04-12T09:52:04.301Z,7.73
2024-04-12T09:54:27.995Z,8.43
2024-04-12T09:56:49.369Z,8.93
2024-04-12T09:59:12.168Z,7.43
2024-04-12T10:01:32.521Z,8.90
2024-04-12T10:03:55.891Z,8.50
2024-04-12T10:06:16.705Z,7.40
2024-04-12T10:08:40.657Z,7.70
2024-04-12T10:11:02.766Z,7.90
2024-04-12T10:13:24.397Z,7.87
2024-04-12T10:15:45.072Z,7.20
2024-04-12T10:18:06.160Z,7.50
2024-04-12T10:20:29.550Z,7.93
2024-04-12T10:22:49.925Z,7.33
2024-04-12T10:25:13.554Z,6.83
2024-04-12T10:27:41.384Z,8.07
2024-04-12T10:30:04.556Z,7.33
2024-04-12T10:32:31.079Z,8.23
2024-04-12T10:34:52.935Z,7.00
2024-04-12T10:37:14.205Z,6.40
2024-04-12T10:39:21.490Z,6.80
2024-04-12T10:41:36.753Z,6.07
2024-04-12T10:43:44.101Z,5.63
2024-04-12T10:45:52.751Z,5.57
2024-04-12T10:47:56.468Z,5.70
2024-04-12T10:50:15.044Z,6.17
2024-04-12T10:52:32.526Z,4.83
2024-04-12T10:54:40.407Z,4.87
2024-04-12T10:56:56.860Z,4.80
2024-04-12T10:59:00.975Z,5.60
2024-04-12T11:01:06.751Z,5.67
2024-04-12T11:03:23.071Z,5.23
2024-04-12T11:05:41.200Z,5.23
2024-04-12T11:07:43.212Z,5.63
2024-04-12T11:09:59.072Z,5.97
2024-04-12T11:12:15.698Z,6.13
2024-04-12T11:14:29.562Z,5.37
2024-04-12T11:16:50.194Z,5.57
2024-04-12T11:19:10.920Z,5.87
2024-04-12T11:21:33.190Z,5.60
2024-04-12T11:23:53.703Z,5.60
2024-04-12T11:26:16.085Z,5.87
2024-04-12T11:28:49.667Z,4.93
2024-04-12T11:31:19.957Z,5.37
2024-04-12T11:33:36.291Z,5.73
2024-04-12T11:35:47.624Z,5.40
2024-04-12T11:37:51.254Z,5.80
2024-04-12T11:40:00.920Z,5.40
2024-04-12T11:42:04.690Z,5.57
2024-04-12T11:44:19.190Z,5.27
2024-04-12T11:46:26.351Z,5.47
2024-04-12T11:48:33.045Z,5.50
2024-04-12T11:50:37.968Z,5.87
2024-04-12T11:52:43.279Z,6.73
2024-04-12T11:54:52.789Z,5.27
2024-04-12T11:56:59.439Z,5.53
2024-04-12T11:59:02.489Z,5.13
2024-04-12T12:01:10.996Z,5.13
2024-04-12T12:03:17.958Z,5.10
2024-04-12T12:05:25.656Z,4.90
2024-04-12T12:07:31.266Z,5.20
2024-04-12T12:09:37.850Z,4.70
2024-04-12T12:11:44.702Z,4.93
2024-04-12T12:13:47.871Z,4.73
2024-04-12T12:15:53.545Z,4.87
2024-04-12T12:17:58.965Z,4.70
2024-04-12T12:20:05.884Z,3.97
2024-04-12T12:22:11.910Z,4.47
2024-04-12T12:24:16.650Z,4.20
2024-04-12T12:26:21.096Z,4.67
2024-04-12T12:28:28.093Z,4.27
2024-04-12T12:30:30.035Z,3.63
2024-04-12T12:32:36.692Z,3.90
2024-04-12T12:34:44.765Z,4.20
2024-04-12T12:36:51.229Z,4.40
2024-04-12T12:38:53.210Z,3.70
2024-04-12T12:40:59.054Z,5.50
2024-04-12T12:43:06.136Z,5.70
2024-04-12T12:45:13.252Z,3.70
2024-04-12T12:47:17.292Z,4.00
2024-04-12T12:49:26.621Z,10.17
2024-04-12T12:51:31.137Z,4.40
2024-04-12T12:53:38.118Z,4.00
2024-04-12T12:55:40.818Z,3.57
2024-04-12T12:57:46.269Z,4.10
2024-04-12T12:59:48.483Z,3.73
2024-04-12T13:01:53.094Z,3.20
2024-04-12T13:03:55.485Z,3.90
2024-04-12T13:06:07.916Z,3.87
2024-04-12T13:08:15.131Z,4.13
2024-04-12T13:10:23.663Z,3.57
2024-04-12T13:12:30.805Z,3.70
2024-04-12T13:14:33.432Z,4.00
2024-04-12T13:16:43.174Z,3.10
2024-04-12T13:18:47.212Z,3.20
2024-04-12T13:20:52.257Z,3.20
2024-04-12T13:22:54.140Z,3.70
2024-04-12T13:25:04.789Z,3.90
2024-04-12T13:27:08.672Z,3.57
2024-04-12T13:29:13.788Z,3.00
2024-04-12T13:31:17.972Z,3.50
2024-04-12T13:33:29.202Z,3.17
2024-04-12T13:35:35.501Z,3.50
2024-04-12T13:37:40.177Z,3.37
2024-04-12T13:39:41.990Z,3.20
2024-04-12T13:41:49.852Z,3.63
2024-04-12T13:43:52.182Z,3.27
2024-04-12T13:46:16.349Z,3.70
2024-04-12T13:48:38.427Z,3.20
2024-04-12T13:51:03.722Z,3.77
2024-04-12T13:53:11.012Z,3.30
2024-04-12T13:55:16.141Z,4.10
2024-04-12T13:57:25.536Z,3.33
2024-04-12T13:59:31.651Z,3.13
2024-04-12T14:01:36.281Z,3.03
2024-04-12T14:03:38.380Z,3.03
2024-04-12T14:05:43.762Z,3.37
2024-04-12T14:07:50.898Z,2.50
2024-04-12T14:09:55.837Z,2.53
2024-04-12T14:11:57.855Z,2.80
2024-04-12T14:14:05.347Z,2.93
2024-04-12T14:16:07.657Z,2.57
2024-04-12T14:18:12.215Z,2.90
2024-04-12T14:20:17.350Z,2.87
2024-04-12T14:22:21.862Z,3.20
2024-04-12T14:24:40.667Z,3.00
2024-04-12T14:26:45.623Z,2.40
2024-04-12T14:28:47.571Z,3.33
2024-04-12T14:30:56.708Z,2.70
2024-04-12T14:32:58.691Z,2.87
2024-04-12T14:35:10.458Z,2.93
2024-04-12T14:37:17.221Z,2.63
2024-04-12T14:39:29.825Z,2.90
2024-04-12T14:41:31.870Z,2.90
2024-04-12T14:43:36.896Z,2.67
2024-04-12T14:45:38.731Z,2.70
2024-04-12T14:47:52.178Z,2.63
2024-04-12T14:50:01.403Z,2.53
2024-04-12T14:52:12.622Z,2.50
2024-04-12T14:54:15.752Z,2.30
2024-04-12T14:56:20.490Z,2.80
2024-04-12T14:58:22.353Z,2.63
2024-04-12T15:00:28.129Z,2.27
2024-04-12T15:02:30.430Z,2.60
2024-04-12T15:04:53.686Z,2.77
2024-04-12T15:07:14.976Z,2.77
2024-04-12T15:09:35.104Z,2.23
2024-04-12T15:11:55.586Z,2.93
2024-04-12T15:14:15.770Z,2.87
2024-04-12T15:16:36.331Z,3.50
2024-04-12T15:18:56.848Z,2.40
2024-04-12T15:21:20.510Z,2.83
2024-04-12T15:23:40.989Z,2.93
2024-04-12T15:26:01.400Z,2.90
2024-04-12T15:28:21.979Z,3.87
2024-04-12T15:30:42.195Z,2.87
2024-04-12T15:33:02.840Z,2.60
2024-04-12T15:35:24.591Z,2.90
2024-04-12T15:37:47.785Z,2.63
2024-04-12T15:40:08.228Z,2.70
2024-04-12T15:42:28.848Z,2.90
2024-04-12T15:44:49.280Z,2.70
2024-04-12T15:47:03.922Z,2.70
2024-04-12T15:49:22.852Z,2.90
2024-04-12T15:51:29.433Z,3.50
2024-04-12T15:53:36.832Z,3.07
2024-04-12T15:55:59.040Z,2.93
2024-04-12T15:58:34.645Z,2.90
2024-04-12T16:00:55.243Z,2.53
2024-04-12T16:03:16.983Z,2.50
2024-04-12T16:05:38.378Z,3.73
2024-04-12T16:07:58.623Z,2.80
2024-04-12T16:10:21.857Z,2.50
2024-04-12T16:12:26.850Z,3.10
2024-04-12T16:14:28.844Z,2.80
2024-04-12T16:16:33.448Z,3.00
2024-04-12T16:18:37.973Z,3.23
2024-04-12T16:20:40.228Z,2.93
2024-04-12T16:22:45.009Z,3.27
2024-04-12T16:24:47.107Z,2.80
2024-04-12T16:26:56.358Z,3.07
2024-04-12T16:28:59.061Z,3.80
2024-04-12T16:31:06.054Z,3.10
2024-04-12T16:33:08.977Z,3.60
2024-04-12T16:35:14.845Z,3.93
2024-04-12T16:37:16.883Z,3.93
2024-04-12T16:39:21.847Z,4.27
2024-04-12T16:41:24.379Z,3.90
2024-04-12T16:43:33.603Z,3.67
2024-04-12T16:45:35.427Z,4.17
2024-04-12T16:47:44.722Z,4.27
2024-04-12T16:49:47.779Z,3.97
2024-04-12T16:52:02.982Z,3.60
2024-04-12T16:54:05.217Z,3.60
2024-04-12T16:56:09.941Z,3.50
2024-04-12T16:58:11.754Z,4.20
2024-04-12T17:00:19.823Z,3.80
2024-04-12T17:02:23.659Z,3.90
2024-04-12T17:04:28.301Z,3.60
2024-04-12T17:06:30.799Z,3.93
2024-04-12T17:08:35.319Z,3.80
2024-04-12T17:10:37.469Z,5.80
2024-04-12T17:12:42.430Z,4.33
2024-04-12T17:14:44.566Z,7.47
2024-04-12T17:16:51.674Z,3.93
2024-04-12T17:18:54.107Z,4.40
2024-04-12T17:21:00.035Z,4.70
2024-04-12T17:23:02.709Z,5.10
2024-04-12T17:25:09.462Z,4.03
2024-04-12T17:27:11.259Z,4.17
2024-04-12T17:29:35.863Z,5.17
2024-04-12T17:31:37.949Z,4.27
2024-04-12T17:33:45.435Z,3.70
2024-04-12T17:35:48.165Z,3.87
2024-04-12T17:37:52.832Z,5.30
2024-04-12T17:39:58.219Z,5.77
2024-04-12T17:42:03.185Z,4.50
2024-04-12T17:44:05.495Z,4.87
2024-04-12T17:46:10.015Z,5.57
2024-04-12T17:48:12.694Z,5.30
2024-04-12T17:50:23.067Z,5.27
2024-04-12T17:52:25.151Z,5.07
2024-04-12T17:54:31.077Z,4.77
2024-04-12T17:56:34.428Z,3.83
2024-04-12T17:58:39.021Z,5.40
2024-04-12T18:00:41.907Z,4.30
2024-04-12T18:02:53.838Z,4.00
2024-04-12T18:04:55.724Z,4.00
2024-04-12T18:07:03.060Z,4.63
2024-04-12T18:09:06.005Z,4.73
2024-04-12T18:11:12.928Z,4.37
2024-04-12T18:13:14.739Z,4.17
2024-04-12T18:15:21.059Z,3.67
2024-04-12T18:17:23.204Z,4.27
2024-04-12T18:19:28.010Z,4.03
2024-04-12T18:21:30.981Z,3.90
2024-04-12T18:23:38.544Z,3.70
2024-04-12T18:25:40.774Z,3.53
2024-04-12T18:27:45.420Z,3.63
2024-04-12T18:29:48.124Z,3.53
2024-04-12T18:31:56.825Z,4.07
2024-04-12T18:33:58.998Z,3.93
2024-04-12T18:36:13.577Z,4.00
2024-04-12T18:38:35.120Z,3.77
2024-04-12T18:40:59.018Z,3.77
2024-04-12T18:43:19.538Z,3.50
2024-04-12T18:45:24.086Z,3.50
2024-04-12T18:47:26.815Z,4.20
2024-04-12T18:49:32.414Z,3.53
2024-04-12T18:51:34.771Z,3.27
2024-04-12T18:53:39.511Z,4.03
2024-04-12T18:55:48.192Z,3.80
2024-04-12T18:57:53.100Z,3.87
2024-04-12T18:59:55.148Z,3.90
2024-04-12T19:01:59.935Z,3.67
2024-04-12T19:04:01.870Z,4.67
2024-04-12T19:06:08.378Z,4.03
2024-04-12T19:08:10.251Z,3.93
2024-04-12T19:10:15.886Z,3.90
2024-04-12T19:12:23.884Z,3.47
2024-04-12T19:14:28.585Z,3.60
2024-04-12T19:16:30.394Z,4.30
2024-04-12T19:18:35.070Z,3.70
2024-04-12T19:20:40.839Z,3.60
2024-04-12T19:22:48.091Z,4.23
2024-04-12T19:24:50.445Z,4.80
2024-04-12T19:26:55.391Z,3.80
2024-04-12T19:29:00.686Z,4.00
2024-04-12T19:31:06.470Z,3.40
2024-04-12T19:33:09.106Z,3.43
2024-04-12T19:35:13.768Z,3.77
2024-04-12T19:37:15.633Z,3.73
2024-04-12T19:39:18.884Z,3.60
2024-04-12T19:41:23.631Z,3.60
2024-04-12T19:43:26.237Z,3.77
2024-04-12T19:45:33.409Z,3.77
2024-04-12T19:47:35.596Z,3.30
2024-04-12T19:49:40.510Z,4.13
2024-04-12T19:51:42.401Z,4.33
2024-04-12T19:53:47.167Z,3.80
2024-04-12T19:55:56.443Z,3.63
2024-04-12T19:58:01.544Z,3.97
2024-04-12T20:00:06.909Z,4.23
2024-04-12T20:02:15.167Z,3.80
2024-04-12T20:04:18.247Z,4.60
2024-04-12T20:06:27.258Z,5.10
2024-04-12T20:08:29.646Z,3.80
2024-04-12T20:10:34.992Z,3.90
2024-04-12T20:12:37.212Z,5.30
2024-04-12T20:14:47.470Z,4.20
2024-04-12T20:16:50.785Z,4.40
2024-04-12T20:19:00.920Z,4.20
2024-04-12T20:21:04.010Z,4.40
2024-04-12T20:23:09.870Z,4.63
2024-04-12T20:25:16.356Z,3.60
2024-04-12T20:27:23.760Z,3.60
2024-04-12T20:29:28.343Z,4.00
2024-04-12T20:31:39.084Z,5.00
2024-04-12T20:33:59.818Z,3.83
2024-04-12T20:36:26.642Z,4.60
2024-04-12T20:38:28.951Z,5.20
2024-04-12T20:40:53.087Z,12.47
2024-04-12T20:42:55.133Z,4.60
2024-04-12T20:45:00.604Z,5.03
2024-04-12T20:47:02.736Z,4.87
2024-04-12T20:49:08.159Z,7.30
2024-04-12T20:51:12.882Z,11.83
2024-04-12T20:53:17.717Z,7.40
2024-04-12T20:55:26.309Z,4.33
2024-04-12T20:57:30.876Z,5.00
2024-04-12T20:59:33.230Z,3.53
2024-04-12T21:01:47.768Z,3.57
2024-04-12T21:03:50.014Z,5.17
2024-04-12T21:05:59.063Z,3.93
2024-04-12T21:08:05.110Z,3.53
2024-04-12T21:10:10.128Z,4.73
2024-04-12T21:12:13.819Z,4.00
2024-04-12T21:14:20.335Z,4.70
2024-04-12T21:16:22.544Z,3.80
2024-04-12T21:18:27.545Z,4.53
2024-04-12T21:20:29.458Z,5.33
2024-04-12T21:22:35.069Z,4.50
2024-04-12T21:24:39.677Z,4.43
2024-04-12T21:26:44.658Z,4.10
2024-04-12T21:28:48.128Z,4.13
2024-04-12T21:30:53.071Z,4.03
2024-04-12T21:32:56.115Z,4.43
2024-04-12T21:35:00.919Z,4.23
2024-04-12T21:37:03.214Z,3.97
2024-04-12T21:39:08.279Z,4.10
2024-04-12T21:41:14.258Z,4.00
2024-04-12T21:43:19.184Z,4.40
2024-04-12T21:45:22.410Z,4.23
2024-04-12T21:47:26.921Z,4.83
2024-04-12T21:49:28.991Z,4.90
2024-04-12T21:51:34.755Z,4.30
2024-04-12T21:53:38.188Z,4.20
2024-04-12T21:55:43.205Z,4.60
2024-04-12T21:57:47.727Z,4.13
2024-04-12T21:59:52.563Z,4.30
2024-04-12T22:01:54.407Z,4.17
2024-04-12T22:03:59.002Z,4.53
2024-04-12T22:06:02.364Z,3.90
2024-04-12T22:08:09.312Z,4.23
2024-04-12T22:10:11.209Z,4.43
2024-04-12T22:12:15.963Z,4.37
2024-04-12T22:14:23.702Z,4.47
2024-04-12T22:16:28.197Z,4.47
2024-04-12T22:18:31.445Z,4.20
2024-04-12T22:20:36.170Z,3.70
2024-04-12T22:22:38.020Z,4.07
2024-04-12T22:24:43.793Z,5.17
2024-04-12T22:26:46.009Z,4.10
2024-04-12T22:28:50.716Z,4.57
2024-04-12T22:30:55.346Z,3.83
2024-04-12T22:33:00.043Z,4.00
2024-04-12T22:35:04.889Z,4.23
2024-04-12T22:37:09.330Z,3.87
2024-04-12T22:39:11.200Z,4.37
2024-04-12T22:41:13.151Z,3.93
2024-04-12T22:43:17.924Z,5.10
2024-04-12T22:45:19.886Z,4.47
2024-04-12T22:47:27.090Z,5.80
2024-04-12T22:49:29.280Z,4.27
2024-04-12T22:51:34.112Z,3.47
2024-04-12T22:53:36.569Z,4.50
2024-04-12T22:55:42.404Z,4.63
2024-04-12T22:57:48.812Z,4.53
2024-04-12T22:59:50.671Z,3.57
2024-04-12T23:01:55.165Z,3.70
2024-04-12T23:03:59.693Z,3.97
2024-04-12T23:06:04.824Z,3.43
2024-04-12T23:08:06.975Z,3.90
2024-04-12T23:10:11.782Z,3.13
2024-04-12T23:12:15.443Z,3.43
2024-04-12T23:14:20.144Z,3.77
2024-04-12T23:16:22.234Z,3.33
2024-04-12T23:18:26.734Z,3.57
2024-04-12T23:20:31.189Z,3.77
2024-04-12T23:22:36.151Z,3.57
2024-04-12T23:24:38.209Z,3.67
2024-04-12T23:26:43.220Z,3.47
2024-04-12T23:28:45.228Z,5.53
2024-04-12T23:30:50.142Z,3.50
2024-04-12T23:32:52.812Z,3.57
2024-04-12T23:34:57.577Z,3.67
2024-04-12T23:37:02.075Z,4.27
2024-04-12T23:39:07.528Z,3.77
2024-04-12T23:41:09.462Z,4.20
2024-04-12T23:43:13.816Z,3.60
2024-04-12T23:45:16.613Z,4.13
2024-04-12T23:47:21.511Z,3.50
2024-04-12T23:49:23.661Z,3.73
2024-04-12T23:51:31.297Z,4.03
2024-04-12T23:53:36.037Z,3.40
2024-04-12T23:55:40.456Z,3.97
2024-04-12T23:57:42.508Z,4.47
2024-04-12T23:59:50.017Z,4.57
